CheckWX is a tool to help pilots better visualize weather data.  It is not intended as a substitute for an official pre-flight weather briefing.

08:22:48 UTC

SBPV TAF
Governador Jorge Teixeira de Oliveira Airport
Porto Velho, Brazil
TAF SBPV 181000Z 1812/1912 06003KT 8000 SCT015 TX31/1818Z TN24/1908Z BECMG 1816/1818 09005KT 9999 SCT025 FEW030TCU PROB30 1823/1901 22003KT TS FEW025 FEW030CB BECMG 1903/1905 00000KT FEW010 RMK PFF

Mar-18@
12:00 UTC

Mar-18 @ 12:00 UTC

Mar-18@
16:00 UTC

Mar-18 @ 16:00 UTC

TAF SBPV 181000Z 1812/1912 06003KT 8000 SCT015 TX31/1818Z TN24/1908Z

Expired

Wind
  • 060° at 3 KTS
Cloud Levels
  • Scattered at 1,500' AGL

Mar-18@
16:00 UTC

Mar-18 @ 16:00 UTC

Mar-19@
03:00 UTC

Mar-19 @ 03:00 UTC

BECMG 1816/1818 09005KT 9999 SCT025 FEW030TCU

Expired

Wind
  • 090° at 5 KTS
Cloud Levels
  • Scattered at 2,500' AGL
  • Few at 3,000' AGL

Mar-18@
23:00 UTC

Mar-18 @ 23:00 UTC

Mar-19@
01:00 UTC

Mar-19 @ 01:00 UTC

PROB30 1823/1901 22003KT TS FEW025 FEW030CB

Expired

Wind
  • 220° at 3 KTS
Conditions
Thunderstorm
Cloud Levels
  • Few at 2,500' AGL
  • Few at 3,000' AGL

Mar-19@
03:00 UTC

Mar-19 @ 03:00 UTC

Mar-19@
12:00 UTC

Mar-19 @ 12:00 UTC

BECMG 1903/1905 00000KT FEW010 RMK PFF

Becoming

Becoming Conditions expected by Tue, Mar 19, 2019 @ 05:00 UTC

Cloud Levels
  • Few at 1,000' AGL